Time;durP1;ratioP1;P1;durP2;ratioP2;P2;SDS_P1;SDS_P2;PMS_P1;PMS_P2;Temp;Humidity;BMP_temperature;BMP_pressure;BME280_temperature;BME280_humidity;BME280_pressure;Samples;Min_cycle;Max_cycle;Signal;HPM_P1;HPM_P2
2021/03/12 00:00:41;;;;;;;0.50;0.50;;;3.50;99.90;;;;;;5033125;28;20229;-85
2021/03/12 01:10:39;;;;;;;0.50;0.50;;;4.40;99.90;;;;;;5867767;22;20239;-85
2021/03/12 01:15:42;;;;;;;0.50;0.50;;;4.50;99.90;;;;;;5964076;22;20244;-83
2021/03/12 01:18:10;;;;;;;0.50;0.50;;;3.70;99.90;;;;;;5104541;23;20236;-84
2021/03/12 02:02:30;;;;;;;0.50;0.50;;;4.30;99.90;;;;;;5924679;22;21120;-81
2021/03/12 02:04:57;;;;;;;0.50;0.50;;;5.70;99.90;;;;;;5031014;28;20552;-82
2021/03/12 02:07:24;;;;;;;0.50;0.50;;;5.00;99.90;;;;;;5027819;28;20217;-81
2021/03/12 02:09:52;;;;;;;0.50;0.50;;;4.60;99.90;;;;;;5025913;28;20236;-82
2021/03/12 02:12:26;;;;;;;0.50;0.50;;;3.90;99.90;;;;;;5028607;28;20198;-82
2021/03/12 02:15:00;;;;;;;0.50;0.50;;;4.60;99.90;;;;;;5031579;28;20217;-82
2021/03/12 02:17:45;;;;;;;0.50;0.50;;;5.20;99.90;;;;;;5031398;28;20209;-82
2021/03/12 02:20:43;;;;;;;0.55;0.55;;;3.70;99.90;;;;;;5032515;28;20201;-82
2021/03/12 02:23:25;;;;;;;0.50;0.50;;;4.90;99.90;;;;;;5030646;28;20198;-82
2021/03/12 02:36:42;;;;;;;0.50;0.50;;;4.20;99.90;;;;;;5161481;22;20217;-84
2021/03/12 02:47:09;;;;;;;0.50;0.50;;;4.40;99.90;;;;;;5335720;23;20256;-84
2021/03/12 03:02:38;;;;;;;0.50;0.50;;;4.50;99.90;;;;;;5473613;22;20239;-85
2021/03/12 03:05:09;;;;;;;0.50;0.50;;;5.30;99.90;;;;;;5066587;28;20208;-84
2021/03/12 03:07:37;;;;;;;0.50;0.50;;;5.20;99.90;;;;;;5070133;28;20224;-82
2021/03/12 03:10:09;;;;;;;0.40;0.40;;;8.00;99.90;;;;;;5069884;28;20234;-83
2021/03/12 03:12:43;;;;;;;0.50;0.50;;;4.90;99.90;;;;;;5071742;28;20199;-82
2021/03/12 03:15:12;;;;;;;0.50;0.50;;;9.10;99.90;;;;;;5068958;28;20195;-82
2021/03/12 03:17:40;;;;;;;0.50;0.50;;;5.30;99.90;;;;;;5071608;28;20498;-83
2021/03/12 03:20:09;;;;;;;0.50;0.50;;;5.20;99.90;;;;;;5067127;28;20216;-82
2021/03/12 03:22:42;;;;;;;0.50;0.50;;;5.30;99.90;;;;;;5068010;28;20208;-83
2021/03/12 03:25:10;;;;;;;0.50;0.50;;;5.80;99.90;;;;;;5068481;28;20352;-82
2021/03/12 03:27:37;;;;;;;0.50;0.50;;;4.70;99.90;;;;;;5069282;28;20207;-82
2021/03/12 03:30:11;;;;;;;0.50;0.50;;;4.60;99.90;;;;;;5069599;28;20195;-83
2021/03/12 03:32:39;;;;;;;0.50;0.50;;;5.10;99.90;;;;;;5069386;28;20196;-84
2021/03/12 03:35:13;;;;;;;0.47;0.47;;;6.50;99.90;;;;;;5071270;28;20198;-83
2021/03/12 03:48:10;;;;;;;0.50;0.50;;;4.70;99.90;;;;;;5553575;22;20219;-83
2021/03/12 03:51:01;;;;;;;0.50;0.50;;;7.10;99.90;;;;;;5546183;22;20219;-83
2021/03/12 03:53:29;;;;;;;0.50;0.50;;;4.50;99.90;;;;;;5983846;22;20203;-85
2021/03/12 04:01:04;;;;;;;0.50;0.50;;;4.80;99.90;;;;;;5319170;22;20244;-82
2021/03/12 04:03:32;;;;;;;0.50;0.50;;;5.90;99.90;;;;;;5054413;28;20185;-83
2021/03/12 04:08:36;;;;;;;0.50;0.50;;;4.70;99.90;;;;;;5004156;28;20226;-82
2021/03/12 04:11:04;;;;;;;0.50;0.50;;;4.50;99.90;;;;;;5275072;22;20269;-84
2021/03/12 04:20:44;;;;;;;0.50;0.50;;;6.80;99.90;;;;;;5054502;28;20218;-87
2021/03/12 04:26:39;;;;;;;;;;;;;;;;;;;;;
2021/03/12 04:29:58;;;;;;;;;;;;;;;;;;;;;
2021/03/12 04:36:11;;;;;;;0.57;0.57;;;3.50;99.90;;;;;;5060059;28;20299;-86
2021/03/12 04:39:01;;;;;;;0.50;0.50;;;4.70;99.90;;;;;;5060759;28;20215;-88
2021/03/12 04:41:42;;;;;;;0.50;0.50;;;6.30;99.90;;;;;;5060391;28;20224;-88
2021/03/12 04:51:12;;;;;;;0.50;0.50;;;6.30;99.90;;;;;;5041557;28;20212;-88
2021/03/12 04:53:55;;;;;;;0.50;0.50;;;5.80;99.90;;;;;;5061133;28;20271;-87
2021/03/12 04:56:28;;;;;;;0.50;0.50;;;4.90;99.90;;;;;;5060720;28;20355;-86
2021/03/12 07:43:42;;;;;;;0.60;0.60;;;5.60;99.90;;;;;;4909757;22;21175;-83
2021/03/12 07:46:09;;;;;;;0.60;0.60;;;5.50;99.90;;;;;;5067894;28;20211;-82
2021/03/12 07:48:36;;;;;;;0.60;0.60;;;5.40;99.90;;;;;;5057557;28;20687;-82
2021/03/12 07:51:09;;;;;;;0.52;0.52;;;5.60;99.90;;;;;;5063350;28;20243;-82
2021/03/12 07:53:51;;;;;;;0.60;0.60;;;5.70;99.90;;;;;;5069338;28;20199;-82
2021/03/12 07:56:18;;;;;;;0.60;0.60;;;5.70;99.90;;;;;;5069176;28;20204;-82
2021/03/12 07:58:54;;;;;;;0.52;0.52;;;5.70;99.90;;;;;;5069017;28;20437;-82
2021/03/12 08:01:21;;;;;;;0.52;0.52;;;5.70;99.90;;;;;;5069276;28;20222;-87
2021/03/12 08:03:49;;;;;;;0.60;0.60;;;5.30;99.90;;;;;;5052079;28;20197;-84
2021/03/12 08:06:29;;;;;;;0.50;0.50;;;5.70;99.90;;;;;;5051482;28;20211;-83
2021/03/12 08:09:05;;;;;;;0.60;0.60;;;5.80;99.90;;;;;;5074240;28;20200;-83
2021/03/12 08:11:52;;;;;;;0.57;0.57;;;5.80;99.90;;;;;;5073543;28;20225;-84
2021/03/12 08:14:24;;;;;;;0.60;0.60;;;5.20;99.90;;;;;;5079100;28;20397;-84
2021/03/12 08:17:28;;;;;;;0.60;0.60;;;6.60;99.90;;;;;;5082782;28;20212;-83
2021/03/12 08:20:29;;;;;;;0.50;0.50;;;8.40;99.90;;;;;;5455478;22;20292;-82
2021/03/12 08:23:03;;;;;;;0.60;0.60;;;6.20;99.90;;;;;;5107671;28;20261;-83
2021/03/12 08:25:47;;;;;;;0.50;0.50;;;7.00;99.90;;;;;;5111279;28;20198;-83
2021/03/12 08:28:42;;;;;;;;;;;;;;;;;;;;;
2021/03/12 08:31:40;;;;;;;0.50;0.50;;;7.40;99.90;;;;;;5090990;28;20278;-82
2021/03/12 08:34:38;;;;;;;0.52;0.52;;;7.20;99.90;;;;;;5102259;28;20378;-82
2021/03/12 08:37:42;;;;;;;0.52;0.52;;;6.00;99.90;;;;;;5105994;28;20654;-82
2021/03/12 08:40:25;;;;;;;0.60;0.60;;;6.00;99.90;;;;;;5088039;28;20237;-82
2021/03/12 08:43:00;;;;;;;0.60;0.60;;;4.40;99.90;;;;;;5080621;28;20195;-83
2021/03/12 08:45:37;;;;;;;0.60;0.60;;;5.40;99.90;;;;;;5088771;28;20198;-83
2021/03/12 08:48:21;;;;;;;0.60;0.60;;;5.60;99.90;;;;;;5107300;28;20335;-82
2021/03/12 08:50:54;;;;;;;0.60;0.60;;;8.50;99.90;;;;;;5099686;28;20219;-84
2021/03/12 08:53:21;;;;;;;0.60;0.60;;;8.00;99.90;;;;;;5172832;22;20270;-83
2021/03/12 08:55:50;;;;;;;0.50;0.50;;;9.10;99.90;;;;;;5071910;28;20199;-82
2021/03/12 08:58:18;;;;;;;0.60;0.60;;;6.40;99.90;;;;;;5065650;28;20211;-83
2021/03/12 09:00:46;;;;;;;0.60;0.60;;;6.40;99.90;;;;;;5073629;28;20298;-82
2021/03/12 09:08:34;;;;;;;0.50;0.50;;;6.40;99.90;;;;;;5136261;22;20443;-84
2021/03/12 09:11:05;;;;;;;0.60;0.60;;;10.00;99.90;;;;;;5063806;28;20233;-85
2021/03/12 09:13:33;;;;;;;0.57;0.57;;;5.80;99.90;;;;;;5050567;28;20273;-84
2021/03/12 09:16:01;;;;;;;0.55;0.55;;;5.90;99.90;;;;;;5048778;28;20302;-84
2021/03/12 09:18:28;;;;;;;0.60;0.60;;;7.60;99.90;;;;;;5047013;28;20732;-83
2021/03/12 09:20:57;;;;;;;0.50;0.50;;;6.30;99.90;;;;;;5048307;28;20323;-84
2021/03/12 09:23:35;;;;;;;0.50;0.50;;;6.30;99.90;;;;;;5047999;28;20212;-84
2021/03/12 09:26:01;;;;;;;0.60;0.60;;;8.10;99.90;;;;;;5048409;28;20579;-84
2021/03/12 09:28:29;;;;;;;0.50;0.50;;;6.80;99.90;;;;;;5047100;28;20573;-85
2021/03/12 09:30:56;;;;;;;0.60;0.60;;;6.60;99.90;;;;;;5047963;28;20702;-84
2021/03/12 09:33:33;;;;;;;0.60;0.60;;;9.40;99.90;;;;;;5047607;28;20744;-84
2021/03/12 09:36:01;;;;;;;0.50;0.50;;;7.00;99.90;;;;;;5048121;28;20283;-84
2021/03/12 09:38:36;;;;;;;0.60;0.60;;;8.60;99.90;;;;;;5048247;28;20690;-84
2021/03/12 09:41:14;;;;;;;0.60;0.60;;;6.80;99.90;;;;;;5048141;28;20563;-83
2021/03/12 09:43:40;;;;;;;0.60;0.60;;;7.90;99.90;;;;;;5051811;28;20634;-83
2021/03/12 09:46:07;;;;;;;0.50;0.50;;;9.50;99.90;;;;;;5053107;28;20217;-84
2021/03/12 09:48:33;;;;;;;0.60;0.60;;;7.30;99.90;;;;;;5050201;28;20212;-85
2021/03/12 09:51:03;;;;;;;0.60;0.60;;;7.40;99.90;;;;;;5070243;28;20224;-86
2021/03/12 09:53:30;;;;;;;0.60;0.60;;;6.70;99.90;;;;;;5074699;28;20235;-84
2021/03/12 09:55:56;;;;;;;0.57;0.57;;;4.90;99.90;;;;;;5081608;28;20207;-83
2021/03/12 09:58:25;;;;;;;0.60;0.60;;;6.00;99.90;;;;;;5326974;22;20324;-84
2021/03/12 10:06:06;;;;;;;0.50;0.50;;;6.90;99.90;;;;;;5034319;28;20220;-80
2021/03/12 10:08:32;;;;;;;0.60;0.60;;;6.90;99.90;;;;;;5029014;28;20209;-80
2021/03/12 10:10:58;;;;;;;0.60;0.60;;;7.10;99.90;;;;;;5033779;28;20398;-82
2021/03/12 10:35:24;;;;;;;;;;;;;;;;;;;;;
2021/03/12 10:38:09;;;;;;;0.60;0.60;;;9.80;99.90;;;;;;6104550;22;20222;-82
2021/03/12 10:40:49;;;;;;;0.60;0.60;;;9.90;99.90;;;;;;6307895;22;20225;-83
2021/03/12 10:43:39;;;;;;;0.60;0.60;;;9.90;99.90;;;;;;6167354;22;20211;-82
2021/03/12 10:46:08;;;;;;;0.60;0.60;;;8.50;99.90;;;;;;6281746;22;20211;-82
2021/03/12 11:00:58;;;;;;;0.50;0.50;;;7.00;99.90;;;;;;6065190;23;20174;-86
2021/03/12 11:13:34;;;;;;;0.60;0.60;;;9.50;99.90;;;;;;6175995;22;20178;-87
2021/03/12 11:16:03;;;;;;;0.60;0.60;;;9.10;99.90;;;;;;6283558;22;20186;-86
2021/03/12 11:18:30;;;;;;;0.50;0.50;;;8.40;99.90;;;;;;6284635;22;20485;-85
2021/03/12 11:20:59;;;;;;;0.60;0.60;;;8.60;99.90;;;;;;6285232;22;20521;-87
2021/03/12 11:23:26;;;;;;;0.60;0.60;;;10.80;99.90;;;;;;6284912;22;20819;-86
2021/03/12 11:25:55;;;;;;;0.50;0.50;;;6.50;99.90;;;;;;6282149;22;20207;-86
2021/03/12 11:28:22;;;;;;;0.60;0.60;;;10.30;99.90;;;;;;6277638;22;20179;-87
2021/03/12 11:30:49;;;;;;;0.60;0.60;;;10.80;99.90;;;;;;6277520;22;20178;-86
2021/03/12 11:33:19;;;;;;;0.60;0.60;;;8.50;99.90;;;;;;6277823;22;20629;-86
2021/03/12 11:35:56;;;;;;;0.60;0.60;;;6.30;99.90;;;;;;6277243;22;20191;-87
2021/03/12 11:41:49;;;;;;;0.60;0.60;;;9.10;99.90;;;;;;6277108;22;20154;-86
2021/03/12 11:44:21;;;;;;;0.50;0.50;;;9.20;99.90;;;;;;6278231;22;20489;-87
2021/03/12 11:47:02;;;;;;;0.60;0.60;;;8.20;99.90;;;;;;6277478;22;20228;-88
2021/03/12 11:53:00;;;;;;;0.57;0.57;;;8.40;99.90;;;;;;6182606;22;20234;-88
2021/03/12 11:58:53;;;;;;;0.60;0.60;;;9.90;99.90;;;;;;6259159;22;20206;-88
2021/03/12 12:22:41;;;;;;;0.60;0.60;;;8.30;99.90;;;;;;6142012;23;20204;-87
2021/03/12 12:31:31;;;;;;;0.50;0.50;;;8.50;99.90;;;;;;6166214;22;20226;-81
2021/03/12 12:39:52;;;;;;;0.50;0.50;;;8.50;99.90;;;;;;6159014;22;20221;-83
2021/03/12 12:42:49;;;;;;;0.60;0.60;;;9.20;99.90;;;;;;6167809;23;20169;-84
2021/03/12 12:45:17;;;;;;;0.60;0.60;;;8.60;99.90;;;;;;6154504;22;20174;-86
2021/03/12 12:50:20;;;;;;;0.60;0.60;;;9.10;99.90;;;;;;6127885;23;20217;-84
2021/03/12 12:52:56;;;;;;;0.57;0.57;;;9.70;99.90;;;;;;6128237;22;20218;-83
2021/03/12 12:55:23;;;;;;;0.60;0.60;;;7.90;99.90;;;;;;6164241;23;20252;-82
2021/03/12 12:57:50;;;;;;;0.60;0.60;;;7.80;99.90;;;;;;6165094;23;20193;-83
2021/03/12 13:00:21;;;;;;;0.60;0.60;;;9.60;99.90;;;;;;6155883;23;20178;-83
2021/03/12 13:02:47;;;;;;;0.57;0.57;;;8.40;99.90;;;;;;6143059;23;20201;-84
2021/03/12 13:05:14;;;;;;;0.60;0.60;;;9.90;99.90;;;;;;6142786;22;20181;-84
2021/03/12 13:07:41;;;;;;;0.55;0.55;;;7.90;99.90;;;;;;6142035;22;20220;-84
2021/03/12 13:10:09;;;;;;;0.60;0.60;;;7.20;99.90;;;;;;6144770;23;20559;-83
2021/03/12 13:12:35;;;;;;;0.60;0.60;;;8.20;99.90;;;;;;6144022;23;20223;-83
2021/03/12 13:15:02;;;;;;;0.60;0.60;;;8.20;99.90;;;;;;6140848;23;20201;-84
2021/03/12 13:17:29;;;;;;;0.60;0.60;;;8.10;99.90;;;;;;6143444;23;20186;-84
2021/03/12 13:19:58;;;;;;;0.60;0.60;;;8.10;99.90;;;;;;6142402;23;20534;-83
2021/03/12 13:22:25;;;;;;;0.60;0.60;;;9.50;99.90;;;;;;6139032;23;20345;-83
2021/03/12 13:24:52;;;;;;;0.60;0.60;;;7.90;99.90;;;;;;6145195;22;20178;-83
2021/03/12 13:27:18;;;;;;;0.60;0.60;;;7.90;99.90;;;;;;6143097;23;20419;-83
2021/03/12 13:29:47;;;;;;;0.60;0.60;;;8.10;99.90;;;;;;6140985;23;20174;-83
2021/03/12 13:32:13;;;;;;;0.60;0.60;;;8.20;99.90;;;;;;6145760;23;20181;-82
2021/03/12 13:37:11;;;;;;;0.60;0.60;;;8.60;99.90;;;;;;6211280;23;20461;-79
2021/03/12 13:39:37;;;;;;;0.60;0.60;;;8.60;99.90;;;;;;6213359;23;20188;-80
2021/03/12 13:42:05;;;;;;;0.60;0.60;;;8.60;99.90;;;;;;6209665;23;20177;-80
2021/03/12 13:49:45;;;;;;;0.60;0.60;;;8.60;99.90;;;;;;6116495;22;20213;-83
2021/03/12 13:52:12;;;;;;;0.50;0.50;;;8.90;99.90;;;;;;6128713;23;20375;-86
2021/03/12 13:54:55;;;;;;;0.60;0.60;;;6.90;99.90;;;;;;6131523;23;20216;-83
2021/03/12 13:57:36;;;;;;;0.57;0.57;;;8.70;99.90;;;;;;6131027;22;20194;-83
2021/03/12 14:02:55;;;;;;;0.60;0.60;;;9.00;99.90;;;;;;6159164;22;20217;-83
2021/03/12 14:13:11;;;;;;;0.60;0.60;;;7.90;99.90;;;;;;6127006;22;20222;-82
2021/03/12 14:15:55;;;;;;;0.60;0.60;;;9.80;99.90;;;;;;6140777;23;20210;-82
2021/03/12 14:20:57;;;;;;;0.60;0.60;;;8.80;99.90;;;;;;6131629;22;20237;-83
2021/03/12 14:26:37;;;;;;;0.60;0.60;;;8.80;99.90;;;;;;6135397;22;20198;-82
2021/03/12 14:34:42;;;;;;;0.60;0.60;;;8.50;99.90;;;;;;6159022;22;20198;-81
2021/03/12 14:37:19;;;;;;;0.60;0.60;;;9.10;99.90;;;;;;6115361;22;20152;-81
2021/03/12 14:39:54;;;;;;;0.60;0.60;;;7.80;99.90;;;;;;6129308;22;20198;-84
2021/03/12 14:42:23;;;;;;;0.60;0.60;;;7.70;99.90;;;;;;6143912;23;20451;-85
2021/03/12 14:47:30;;;;;;;0.50;0.50;;;7.60;99.90;;;;;;6110864;22;20214;-82
2021/03/12 14:50:17;;;;;;;0.60;0.60;;;6.90;99.90;;;;;;6116843;22;20176;-83
2021/03/12 14:55:24;;;;;;;0.57;0.57;;;7.40;99.90;;;;;;6101881;22;20206;-82
2021/03/12 14:57:52;;;;;;;0.60;0.60;;;6.80;99.90;;;;;;6115526;23;20171;-81
2021/03/12 15:00:20;;;;;;;0.60;0.60;;;10.20;99.90;;;;;;6107504;23;20187;-85
2021/03/12 15:02:48;;;;;;;0.60;0.60;;;9.20;99.90;;;;;;6109776;23;20622;-85
2021/03/12 15:05:19;;;;;;;0.60;0.60;;;7.50;99.90;;;;;;6109718;23;20186;-83
2021/03/12 15:07:48;;;;;;;0.60;0.60;;;7.00;99.90;;;;;;6102482;23;20184;-83
2021/03/12 15:10:15;;;;;;;0.60;0.60;;;7.70;99.90;;;;;;6106259;23;20642;-84
2021/03/12 15:12:42;;;;;;;0.57;0.57;;;6.80;99.90;;;;;;6107321;23;20217;-83
2021/03/12 15:15:10;;;;;;;0.50;0.50;;;7.70;99.90;;;;;;6111222;23;20195;-82
2021/03/12 15:17:36;;;;;;;0.60;0.60;;;7.90;99.90;;;;;;6103814;23;20179;-83
2021/03/12 15:20:04;;;;;;;0.50;0.50;;;7.00;99.90;;;;;;6104261;23;20182;-83
2021/03/12 15:22:32;;;;;;;0.60;0.60;;;6.80;99.90;;;;;;6102373;23;20262;-83
2021/03/12 15:25:01;;;;;;;0.60;0.60;;;9.30;99.90;;;;;;6100718;23;20180;-84
2021/03/12 15:27:29;;;;;;;0.57;0.57;;;9.10;99.90;;;;;;6099704;23;20231;-83
2021/03/12 15:30:02;;;;;;;0.50;0.50;;;6.70;99.90;;;;;;6099645;23;20189;-83
2021/03/12 15:32:28;;;;;;;0.60;0.60;;;9.20;99.90;;;;;;6100254;23;20183;-83
2021/03/12 15:34:55;;;;;;;0.60;0.60;;;7.00;99.90;;;;;;6110326;22;20199;-82
2021/03/12 15:37:26;;;;;;;0.60;0.60;;;7.80;99.90;;;;;;6109839;23;20306;-82
2021/03/12 15:39:54;;;;;;;0.60;0.60;;;10.40;99.90;;;;;;6108443;23;20233;-81
2021/03/12 15:42:20;;;;;;;0.60;0.60;;;8.40;99.90;;;;;;6105551;23;20178;-81
2021/03/12 15:44:49;;;;;;;0.60;0.60;;;8.80;99.90;;;;;;6110340;23;20171;-82
2021/03/12 15:47:23;;;;;;;0.60;0.60;;;7.70;99.90;;;;;;6112238;23;20170;-83
2021/03/12 15:49:53;;;;;;;0.60;0.60;;;9.70;99.90;;;;;;6111299;22;20283;-82
2021/03/12 15:52:32;;;;;;;0.60;0.60;;;6.90;99.90;;;;;;6081885;22;20214;-81
2021/03/12 15:55:18;;;;;;;;;;;;;;;;;;;;;
2021/03/12 15:57:55;;;;;;;0.60;0.60;;;6.30;99.90;;;;;;6110354;22;20183;-82
2021/03/12 16:03:36;;;;;;;0.50;0.50;;;6.60;99.90;;;;;;6137378;23;20191;-82
2021/03/12 16:06:08;;;;;;;0.60;0.60;;;7.60;99.90;;;;;;6145727;23;20179;-82
2021/03/12 16:08:52;;;;;;;;;;;;;;;;;;;;;
2021/03/12 16:11:39;;;;;;;0.60;0.60;;;7.50;99.90;;;;;;6144509;23;20150;-82
2021/03/12 16:14:57;;;;;;;0.60;0.60;;;7.70;99.90;;;;;;6147167;23;20155;-82
2021/03/12 16:17:36;;;;;;;0.55;0.55;;;8.80;99.90;;;;;;6144427;23;20174;-82
2021/03/12 16:20:23;;;;;;;0.60;0.60;;;6.60;99.90;;;;;;6149431;23;20162;-83
2021/03/12 16:23:06;;;;;;;;;;;;;;;;;;;;;
2021/03/12 16:26:01;;;;;;;0.60;0.60;;;7.90;99.90;;;;;;6148093;23;20151;-82
2021/03/12 16:31:37;;;;;;;0.52;0.52;;;8.50;99.90;;;;;;6146296;23;20177;-82
2021/03/12 16:34:07;;;;;;;0.60;0.60;;;7.80;99.90;;;;;;6148523;23;20175;-82
2021/03/12 16:36:42;;;;;;;0.60;0.60;;;8.10;99.90;;;;;;6148122;23;20225;-82
2021/03/12 16:39:09;;;;;;;0.60;0.60;;;7.90;99.90;;;;;;6133936;23;20181;-82
2021/03/12 16:41:49;;;;;;;0.60;0.60;;;7.40;99.90;;;;;;6140126;23;20200;-83
2021/03/12 16:47:46;;;;;;;0.60;0.60;;;10.10;99.90;;;;;;6141463;23;20754;-83
2021/03/12 16:50:16;;;;;;;0.55;0.55;;;8.50;99.90;;;;;;6143480;23;20219;-83
2021/03/12 16:53:14;;;;;;;0.60;0.60;;;7.00;99.90;;;;;;6142883;23;20171;-83
2021/03/12 16:55:42;;;;;;;0.60;0.60;;;8.90;99.90;;;;;;6140980;23;20199;-82
2021/03/12 16:58:10;;;;;;;0.60;0.60;;;6.90;99.90;;;;;;6141201;23;20162;-83
2021/03/12 17:01:20;;;;;;;;;;;;;;;;;;;;;
2021/03/12 17:11:09;;;;;;;;;;;;;;;;;;;;;
2021/03/12 17:13:44;;;;;;;0.60;0.60;;;8.60;99.90;;;;;;6089714;22;20203;-84
2021/03/12 17:42:27;;;;;;;0.60;0.60;;;9.10;99.90;;;;;;5876265;24;20182;-87
2021/03/12 17:44:53;;;;;;;0.60;0.60;;;6.60;99.90;;;;;;6036038;23;20501;-86
2021/03/12 17:47:28;;;;;;;0.60;0.60;;;9.00;99.90;;;;;;6094982;23;20183;-86
2021/03/12 17:49:54;;;;;;;0.52;0.52;;;6.20;99.90;;;;;;6093471;23;20182;-86
2021/03/12 17:52:20;;;;;;;0.60;0.60;;;5.60;99.90;;;;;;6094510;23;20183;-86
2021/03/12 17:54:47;;;;;;;0.50;0.50;;;6.50;99.90;;;;;;6093230;23;20194;-85
2021/03/12 17:57:13;;;;;;;0.60;0.60;;;5.80;99.90;;;;;;6093954;23;20182;-86
2021/03/12 17:59:41;;;;;;;0.52;0.52;;;8.10;99.90;;;;;;6094062;23;20262;-86
2021/03/12 18:02:07;;;;;;;0.60;0.60;;;7.30;99.90;;;;;;6094289;23;20254;-85
2021/03/12 18:04:34;;;;;;;0.60;0.60;;;7.20;99.90;;;;;;6095471;23;20453;-87
2021/03/12 18:07:00;;;;;;;0.50;0.50;;;6.00;99.90;;;;;;6095795;23;20199;-86
2021/03/12 18:09:27;;;;;;;0.60;0.60;;;6.00;99.90;;;;;;6095874;23;20183;-86
2021/03/12 18:11:55;;;;;;;0.60;0.60;;;5.40;99.90;;;;;;6094221;23;20183;-86
2021/03/12 18:14:21;;;;;;;0.50;0.50;;;6.60;99.90;;;;;;6095743;23;20187;-87
2021/03/12 18:16:49;;;;;;;0.60;0.60;;;5.80;99.90;;;;;;6094363;23;20207;-87
2021/03/12 18:19:18;;;;;;;0.60;0.60;;;5.60;99.90;;;;;;6094930;23;20176;-88
2021/03/12 18:21:44;;;;;;;0.50;0.50;;;5.50;99.90;;;;;;6097376;23;20187;-85
2021/03/12 18:24:11;;;;;;;0.60;0.60;;;6.70;99.90;;;;;;6098150;23;20184;-86
2021/03/12 18:26:38;;;;;;;0.60;0.60;;;6.50;99.90;;;;;;6097160;23;20751;-86
2021/03/12 18:29:05;;;;;;;0.50;0.50;;;8.20;99.90;;;;;;6094530;23;20228;-86
2021/03/12 18:31:31;;;;;;;0.60;0.60;;;5.70;99.90;;;;;;6092899;23;20176;-87
2021/03/12 18:33:58;;;;;;;0.60;0.60;;;4.30;99.90;;;;;;6095849;23;20221;-88
2021/03/12 18:36:24;;;;;;;0.60;0.60;;;5.30;99.90;;;;;;6093557;23;20217;-87
2021/03/12 18:38:51;;;;;;;0.50;0.50;;;6.30;99.90;;;;;;6096306;23;20266;-86
2021/03/12 18:41:17;;;;;;;0.60;0.60;;;7.20;99.90;;;;;;6092761;23;20186;-87
2021/03/12 18:43:44;;;;;;;0.50;0.50;;;5.10;99.90;;;;;;6096086;23;20190;-85
2021/03/12 18:46:10;;;;;;;0.50;0.50;;;7.10;99.90;;;;;;6093640;23;20611;-86
2021/03/12 18:48:37;;;;;;;0.60;0.60;;;6.40;99.90;;;;;;6094289;23;20183;-87
2021/03/12 18:51:04;;;;;;;0.60;0.60;;;7.60;99.90;;;;;;6094716;23;20309;-87
2021/03/12 18:53:31;;;;;;;0.60;0.60;;;5.30;99.90;;;;;;6094955;23;20241;-87
2021/03/12 18:55:57;;;;;;;0.50;0.50;;;5.40;99.90;;;;;;6096051;23;20195;-88
2021/03/12 18:58:26;;;;;;;0.50;0.50;;;5.20;99.90;;;;;;6096814;23;20547;-87
2021/03/12 19:00:53;;;;;;;0.57;0.57;;;7.00;99.90;;;;;;6098275;23;20179;-88
2021/03/12 19:03:19;;;;;;;0.60;0.60;;;5.70;99.90;;;;;;6097500;23;20181;-87
2021/03/12 19:05:46;;;;;;;0.50;0.50;;;7.00;99.90;;;;;;6095928;23;20230;-87
2021/03/12 19:08:13;;;;;;;0.60;0.60;;;6.10;99.90;;;;;;6096315;23;20182;-86
2021/03/12 19:10:40;;;;;;;0.50;0.50;;;4.40;99.90;;;;;;6095923;23;20183;-86
2021/03/12 19:13:06;;;;;;;0.50;0.50;;;4.70;99.90;;;;;;6096040;23;20238;-87
2021/03/12 19:15:33;;;;;;;0.50;0.50;;;3.90;99.90;;;;;;6095219;23;20201;-87
2021/03/12 19:18:01;;;;;;;0.57;0.57;;;3.30;99.90;;;;;;6095649;23;20630;-88
2021/03/12 19:20:29;;;;;;;0.50;0.50;;;5.50;99.90;;;;;;6096403;23;20627;-87
2021/03/12 19:22:56;;;;;;;0.50;0.50;;;6.00;99.90;;;;;;6095533;23;20183;-86
2021/03/12 19:25:24;;;;;;;0.50;0.50;;;4.40;99.90;;;;;;6094349;23;20761;-87
2021/03/12 19:27:55;;;;;;;0.60;0.60;;;4.90;99.90;;;;;;6092882;23;20631;-87
2021/03/12 19:30:25;;;;;;;0.60;0.60;;;3.40;99.90;;;;;;6093115;23;20175;-85
2021/03/12 19:32:51;;;;;;;0.50;0.50;;;5.80;99.90;;;;;;6093544;23;20664;-86
2021/03/12 19:35:18;;;;;;;0.50;0.50;;;6.80;99.90;;;;;;6092037;23;20191;-86
2021/03/12 19:37:45;;;;;;;0.50;0.50;;;7.50;99.90;;;;;;6096157;23;20725;-87
2021/03/12 19:40:13;;;;;;;0.50;0.50;;;7.00;99.90;;;;;;6093915;23;20263;-86
2021/03/12 19:42:40;;;;;;;0.50;0.50;;;5.30;99.90;;;;;;6094309;23;20179;-87
2021/03/12 19:45:09;;;;;;;0.50;0.50;;;7.00;99.90;;;;;;6094000;23;20175;-87
2021/03/12 19:47:36;;;;;;;0.50;0.50;;;6.00;99.90;;;;;;6094534;23;20266;-87
2021/03/12 19:50:04;;;;;;;0.50;0.50;;;5.50;99.90;;;;;;6092562;23;20289;-87
2021/03/12 19:52:30;;;;;;;0.60;0.60;;;5.00;99.90;;;;;;6091540;23;20175;-88
2021/03/12 19:54:57;;;;;;;0.50;0.50;;;7.70;99.90;;;;;;6091156;23;20191;-86
2021/03/12 19:57:23;;;;;;;0.52;0.52;;;6.60;99.90;;;;;;6092245;23;20179;-87
2021/03/12 19:59:51;;;;;;;0.50;0.50;;;6.70;99.90;;;;;;6093605;23;20198;-87
2021/03/12 20:02:17;;;;;;;0.50;0.50;;;7.30;99.90;;;;;;6093943;23;20194;-86
2021/03/12 20:04:45;;;;;;;0.50;0.50;;;4.20;99.90;;;;;;6093974;23;20183;-87
2021/03/12 20:07:12;;;;;;;0.60;0.60;;;7.30;99.90;;;;;;6093874;23;20620;-88
2021/03/12 20:10:11;;;;;;;0.50;0.50;;;8.70;99.90;;;;;;6093481;23;20190;-88
2021/03/12 20:16:24;;;;;;;0.50;0.50;;;5.50;99.90;;;;;;6086014;23;20277;-87
2021/03/12 20:22:29;;;;;;;0.50;0.50;;;4.50;99.90;;;;;;6022412;23;20186;-88
2021/03/12 20:24:58;;;;;;;0.50;0.50;;;5.00;99.90;;;;;;6092278;23;20210;-88
2021/03/12 20:27:28;;;;;;;0.60;0.60;;;6.80;99.90;;;;;;6092348;23;20175;-87
2021/03/12 20:30:01;;;;;;;0.50;0.50;;;6.60;99.90;;;;;;6092943;23;20203;-87
2021/03/12 20:32:39;;;;;;;0.55;0.55;;;5.80;99.90;;;;;;6094089;23;20175;-87
2021/03/12 20:35:14;;;;;;;0.50;0.50;;;6.60;99.90;;;;;;6092877;23;20191;-87
2021/03/12 20:37:49;;;;;;;0.60;0.60;;;5.40;99.90;;;;;;6094989;23;20174;-88
2021/03/12 20:40:21;;;;;;;0.50;0.50;;;5.60;99.90;;;;;;6093096;23;20175;-88
2021/03/12 21:05:18;;;;;;;0.50;0.50;;;4.30;99.90;;;;;;6103225;22;20199;-84
2021/03/12 21:07:48;;;;;;;0.50;0.50;;;3.70;99.90;;;;;;6136814;22;20225;-81
2021/03/12 21:10:24;;;;;;;0.50;0.50;;;4.60;99.90;;;;;;6081518;22;20164;-83
2021/03/12 21:12:55;;;;;;;0.50;0.50;;;5.60;99.90;;;;;;6099247;22;20313;-84
2021/03/12 21:15:21;;;;;;;0.50;0.50;;;3.00;99.90;;;;;;6083199;22;20224;-82
2021/03/12 21:20:20;;;;;;;0.50;0.50;;;4.10;99.90;;;;;;6100630;23;20187;-82
2021/03/12 21:22:49;;;;;;;0.50;0.50;;;4.40;99.90;;;;;;6099892;23;20266;-81
2021/03/12 21:33:13;;;;;;;0.50;0.50;;;3.60;99.90;;;;;;6071541;22;20198;-80
2021/03/12 21:35:50;;;;;;;0.55;0.55;;;5.30;99.90;;;;;;6171039;22;20187;-79
2021/03/12 21:41:42;;;;;;;0.60;0.60;;;3.60;99.90;;;;;;6146874;22;20225;-81
2021/03/12 21:44:11;;;;;;;0.50;0.50;;;5.50;99.90;;;;;;6136605;22;20207;-81
2021/03/12 21:49:17;;;;;;;0.50;0.50;;;3.30;99.90;;;;;;6088060;23;20187;-81
2021/03/12 22:07:27;;;;;;;0.50;0.50;;;3.10;99.90;;;;;;6133043;22;20244;-80
2021/03/12 22:40:54;;;;;;;0.60;0.60;;;2.90;99.90;;;;;;6087216;22;20219;-83
2021/03/12 22:43:21;;;;;;;0.50;0.50;;;2.50;99.90;;;;;;6122890;22;20214;-82
2021/03/12 22:45:49;;;;;;;0.57;0.57;;;3.40;99.90;;;;;;6117850;22;20202;-82
2021/03/12 22:48:17;;;;;;;0.50;0.50;;;3.70;99.90;;;;;;6114689;22;20193;-80
2021/03/12 22:50:47;;;;;;;0.50;0.50;;;1.40;99.90;;;;;;6107294;23;20188;-82
2021/03/12 22:53:21;;;;;;;0.50;0.50;;;2.80;99.90;;;;;;6115991;22;20159;-82
2021/03/12 22:56:00;;;;;;;;;;;;;;;;;;;;;
2021/03/12 23:01:08;;;;;;;0.45;0.45;;;3.00;99.90;;;;;;6124387;22;20205;-80
2021/03/12 23:03:47;;;;;;;0.50;0.50;;;3.50;99.90;;;;;;6149314;23;20159;-80
2021/03/12 23:09:12;;;;;;;0.50;0.50;;;3.00;99.90;;;;;;6113222;23;20413;-80
2021/03/12 23:14:24;;;;;;;0.50;0.50;;;3.10;99.90;;;;;;6211825;23;20209;-80
2021/03/12 23:16:55;;;;;;;0.50;0.50;;;2.70;99.90;;;;;;6212860;23;20173;-81
2021/03/12 23:19:23;;;;;;;0.50;0.50;;;2.10;99.90;;;;;;6154977;22;20945;-79
2021/03/12 23:21:49;;;;;;;0.50;0.50;;;5.70;99.90;;;;;;6126207;23;20228;-79
2021/03/12 23:24:17;;;;;;;0.60;0.60;;;5.60;99.90;;;;;;6128094;23;20190;-79
2021/03/12 23:26:44;;;;;;;0.50;0.50;;;3.40;99.90;;;;;;6128054;23;20182;-80
2021/03/12 23:29:10;;;;;;;0.50;0.50;;;4.00;99.90;;;;;;6128262;23;20178;-80
2021/03/12 23:31:44;;;;;;;0.50;0.50;;;2.90;99.90;;;;;;6131015;23;20199;-79
2021/03/12 23:34:16;;;;;;;0.50;0.50;;;1.40;99.90;;;;;;6128126;23;20178;-80
2021/03/12 23:36:42;;;;;;;0.50;0.50;;;5.80;99.90;;;;;;6128028;23;20189;-80
2021/03/12 23:39:10;;;;;;;0.50;0.50;;;2.10;99.90;;;;;;6128061;23;20187;-80
2021/03/12 23:41:38;;;;;;;0.50;0.50;;;3.10;99.90;;;;;;6129552;23;20367;-80
2021/03/12 23:44:06;;;;;;;0.50;0.50;;;4.80;99.90;;;;;;6127933;23;20205;-80
2021/03/12 23:46:32;;;;;;;0.50;0.50;;;4.00;99.90;;;;;;6128914;23;20178;-81
2021/03/12 23:48:59;;;;;;;0.50;0.50;;;1.40;99.90;;;;;;6128449;23;20194;-80
2021/03/12 23:51:32;;;;;;;0.50;0.50;;;4.80;99.90;;;;;;6135881;23;20262;-80
2021/03/12 23:54:00;;;;;;;0.50;0.50;;;2.90;99.90;;;;;;6137836;23;20181;-80
2021/03/12 23:56:37;;;;;;;0.50;0.50;;;5.50;99.90;;;;;;6139975;23;20246;-80
2021/03/12 23:59:11;;;;;;;0.50;0.50;;;3.70;99.90;;;;;;6141292;23;20180;-80
